sensor_id;sensor_type;location;lat;lon;timestamp;temperature;humidity
25628;DHT22;40915;50.826;4.356;2022-12-20T00:00:48;12.10;99.90
25628;DHT22;40915;50.826;4.356;2022-12-20T00:03:14;12.00;99.90
25628;DHT22;40915;50.826;4.356;2022-12-20T00:05:42;12.00;99.90
25628;DHT22;40915;50.826;4.356;2022-12-20T00:08:17;11.90;99.90
25628;DHT22;40915;50.826;4.356;2022-12-20T00:10:44;11.90;99.90
25628;DHT22;40915;50.826;4.356;2022-12-20T00:13:10;12.00;99.90
25628;DHT22;40915;50.826;4.356;2022-12-20T00:15:36;12.00;99.90
25628;DHT22;40915;50.826;4.356;2022-12-20T00:18:02;12.00;99.90
25628;DHT22;40915;50.826;4.356;2022-12-20T00:20:28;11.90;99.90
25628;DHT22;40915;50.826;4.356;2022-12-20T00:22:55;12.00;99.90
25628;DHT22;40915;50.826;4.356;2022-12-20T00:25:20;12.00;99.90
25628;DHT22;40915;50.826;4.356;2022-12-20T00:27:49;12.00;99.90
25628;DHT22;40915;50.826;4.356;2022-12-20T00:30:15;11.90;99.90
25628;DHT22;40915;50.826;4.356;2022-12-20T00:32:42;12.00;99.90
25628;DHT22;40915;50.826;4.356;2022-12-20T00:35:08;11.80;99.90
25628;DHT22;40915;50.826;4.356;2022-12-20T00:37:33;11.80;99.90
25628;DHT22;40915;50.826;4.356;2022-12-20T00:39:59;11.80;99.90
25628;DHT22;40915;50.826;4.356;2022-12-20T00:42:24;11.80;99.90
25628;DHT22;40915;50.826;4.356;2022-12-20T00:44:50;11.80;99.90
25628;DHT22;40915;50.826;4.356;2022-12-20T00:47:15;11.90;99.90
25628;DHT22;40915;50.826;4.356;2022-12-20T00:49:41;11.90;99.90
25628;DHT22;40915;50.826;4.356;2022-12-20T00:52:07;11.80;99.90
25628;DHT22;40915;50.826;4.356;2022-12-20T00:54:33;11.80;99.90
25628;DHT22;40915;50.826;4.356;2022-12-20T00:56:58;11.90;99.90
25628;DHT22;40915;50.826;4.356;2022-12-20T00:59:24;11.90;99.90
25628;DHT22;40915;50.826;4.356;2022-12-20T01:01:50;11.90;99.90
25628;DHT22;40915;50.826;4.356;2022-12-20T01:04:16;11.90;99.90
25628;DHT22;40915;50.826;4.356;2022-12-20T01:06:41;11.90;99.90
25628;DHT22;40915;50.826;4.356;2022-12-20T01:09:07;11.90;99.90
25628;DHT22;40915;50.826;4.356;2022-12-20T01:11:34;11.90;99.90
25628;DHT22;40915;50.826;4.356;2022-12-20T01:14:03;11.90;99.90
25628;DHT22;40915;50.826;4.356;2022-12-20T01:16:34;11.90;99.90
25628;DHT22;40915;50.826;4.356;2022-12-20T01:19:00;11.90;99.90
25628;DHT22;40915;50.826;4.356;2022-12-20T01:21:26;11.90;99.90
25628;DHT22;40915;50.826;4.356;2022-12-20T01:23:53;11.80;99.90
25628;DHT22;40915;50.826;4.356;2022-12-20T01:26:21;11.80;99.90
25628;DHT22;40915;50.826;4.356;2022-12-20T01:28:48;11.80;99.90
25628;DHT22;40915;50.826;4.356;2022-12-20T01:31:16;11.80;99.90
25628;DHT22;40915;50.826;4.356;2022-12-20T01:33:42;11.70;99.90
25628;DHT22;40915;50.826;4.356;2022-12-20T01:36:12;11.70;99.90
25628;DHT22;40915;50.826;4.356;2022-12-20T01:38:38;11.70;99.90
25628;DHT22;40915;50.826;4.356;2022-12-20T01:41:04;11.70;99.90
25628;DHT22;40915;50.826;4.356;2022-12-20T01:43:49;11.70;99.90
25628;DHT22;40915;50.826;4.356;2022-12-20T01:46:16;11.70;99.90
25628;DHT22;40915;50.826;4.356;2022-12-20T01:48:46;11.60;99.90
25628;DHT22;40915;50.826;4.356;2022-12-20T01:51:12;11.70;99.90
25628;DHT22;40915;50.826;4.356;2022-12-20T01:53:38;11.60;99.90
25628;DHT22;40915;50.826;4.356;2022-12-20T01:56:06;11.50;99.90
25628;DHT22;40915;50.826;4.356;2022-12-20T01:58:33;11.50;99.90
25628;DHT22;40915;50.826;4.356;2022-12-20T02:00:59;11.40;99.90
25628;DHT22;40915;50.826;4.356;2022-12-20T02:03:25;11.40;99.90
25628;DHT22;40915;50.826;4.356;2022-12-20T02:05:50;11.40;99.90
25628;DHT22;40915;50.826;4.356;2022-12-20T02:08:18;11.50;99.90
25628;DHT22;40915;50.826;4.356;2022-12-20T02:16:06;11.40;99.90
25628;DHT22;40915;50.826;4.356;2022-12-20T02:18:51;11.40;99.90
25628;DHT22;40915;50.826;4.356;2022-12-20T02:27:22;11.50;99.90
25628;DHT22;40915;50.826;4.356;2022-12-20T02:30:04;11.50;99.90
25628;DHT22;40915;50.826;4.356;2022-12-20T02:35:28;11.50;99.90
25628;DHT22;40915;50.826;4.356;2022-12-20T02:37:57;11.60;99.90
25628;DHT22;40915;50.826;4.356;2022-12-20T02:40:34;11.60;99.90
25628;DHT22;40915;50.826;4.356;2022-12-20T02:43:03;11.60;99.90
25628;DHT22;40915;50.826;4.356;2022-12-20T02:45:51;11.60;99.90
25628;DHT22;40915;50.826;4.356;2022-12-20T02:48:17;11.60;99.90
25628;DHT22;40915;50.826;4.356;2022-12-20T02:50:46;11.60;99.90
25628;DHT22;40915;50.826;4.356;2022-12-20T02:53:14;11.60;99.90
25628;DHT22;40915;50.826;4.356;2022-12-20T02:55:59;11.60;99.90
25628;DHT22;40915;50.826;4.356;2022-12-20T02:58:37;11.60;99.90
25628;DHT22;40915;50.826;4.356;2022-12-20T03:01:15;11.70;99.90
25628;DHT22;40915;50.826;4.356;2022-12-20T03:03:42;11.70;99.90
25628;DHT22;40915;50.826;4.356;2022-12-20T03:06:08;11.70;99.90
25628;DHT22;40915;50.826;4.356;2022-12-20T03:08:33;11.70;99.90
25628;DHT22;40915;50.826;4.356;2022-12-20T03:11:01;11.70;99.90
25628;DHT22;40915;50.826;4.356;2022-12-20T03:13:26;11.70;99.90
25628;DHT22;40915;50.826;4.356;2022-12-20T03:15:52;11.70;99.90
25628;DHT22;40915;50.826;4.356;2022-12-20T03:18:17;11.70;99.90
25628;DHT22;40915;50.826;4.356;2022-12-20T03:20:43;11.70;99.90
25628;DHT22;40915;50.826;4.356;2022-12-20T03:23:09;11.80;99.90
25628;DHT22;40915;50.826;4.356;2022-12-20T03:25:35;11.70;99.90
25628;DHT22;40915;50.826;4.356;2022-12-20T03:28:00;11.70;99.90
25628;DHT22;40915;50.826;4.356;2022-12-20T03:30:26;11.80;99.90
25628;DHT22;40915;50.826;4.356;2022-12-20T03:32:51;11.80;99.90
25628;DHT22;40915;50.826;4.356;2022-12-20T03:35:17;11.70;99.90
25628;DHT22;40915;50.826;4.356;2022-12-20T03:37:43;11.70;99.90
25628;DHT22;40915;50.826;4.356;2022-12-20T03:40:09;11.70;99.90
25628;DHT22;40915;50.826;4.356;2022-12-20T03:42:35;11.70;99.90
25628;DHT22;40915;50.826;4.356;2022-12-20T03:45:03;11.80;99.90
25628;DHT22;40915;50.826;4.356;2022-12-20T03:47:29;11.80;99.90
25628;DHT22;40915;50.826;4.356;2022-12-20T03:49:55;11.80;99.90
25628;DHT22;40915;50.826;4.356;2022-12-20T03:52:21;11.80;99.90
25628;DHT22;40915;50.826;4.356;2022-12-20T03:54:47;11.70;99.90
25628;DHT22;40915;50.826;4.356;2022-12-20T03:57:13;11.70;99.90
25628;DHT22;40915;50.826;4.356;2022-12-20T03:59:38;11.60;99.90
25628;DHT22;40915;50.826;4.356;2022-12-20T04:02:04;11.60;99.90
25628;DHT22;40915;50.826;4.356;2022-12-20T04:04:30;11.60;99.90
25628;DHT22;40915;50.826;4.356;2022-12-20T04:06:56;11.60;99.90
25628;DHT22;40915;50.826;4.356;2022-12-20T04:09:21;11.60;99.90
25628;DHT22;40915;50.826;4.356;2022-12-20T04:11:47;11.60;99.90
25628;DHT22;40915;50.826;4.356;2022-12-20T04:14:12;11.50;99.90
25628;DHT22;40915;50.826;4.356;2022-12-20T04:16:38;11.50;99.90
25628;DHT22;40915;50.826;4.356;2022-12-20T04:19:04;11.60;99.90
25628;DHT22;40915;50.826;4.356;2022-12-20T04:21:32;11.50;99.90
25628;DHT22;40915;50.826;4.356;2022-12-20T04:23:59;11.50;99.90
25628;DHT22;40915;50.826;4.356;2022-12-20T04:26:25;11.60;99.90
25628;DHT22;40915;50.826;4.356;2022-12-20T04:28:51;11.60;99.90
25628;DHT22;40915;50.826;4.356;2022-12-20T04:31:16;11.60;99.90
25628;DHT22;40915;50.826;4.356;2022-12-20T04:33:44;11.60;99.90
25628;DHT22;40915;50.826;4.356;2022-12-20T04:36:09;11.70;99.90
25628;DHT22;40915;50.826;4.356;2022-12-20T04:38:35;11.60;99.90
25628;DHT22;40915;50.826;4.356;2022-12-20T04:41:01;11.60;99.90
25628;DHT22;40915;50.826;4.356;2022-12-20T04:43:26;11.60;99.90
25628;DHT22;40915;50.826;4.356;2022-12-20T04:45:53;11.70;99.90
25628;DHT22;40915;50.826;4.356;2022-12-20T04:48:26;11.70;99.90
25628;DHT22;40915;50.826;4.356;2022-12-20T04:50:53;11.80;99.90
25628;DHT22;40915;50.826;4.356;2022-12-20T04:53:20;11.70;99.90
25628;DHT22;40915;50.826;4.356;2022-12-20T04:56:05;11.70;99.90
25628;DHT22;40915;50.826;4.356;2022-12-20T04:58:30;11.60;99.90
25628;DHT22;40915;50.826;4.356;2022-12-20T05:00:56;11.70;99.90
25628;DHT22;40915;50.826;4.356;2022-12-20T05:03:23;11.70;99.90
25628;DHT22;40915;50.826;4.356;2022-12-20T05:05:49;11.70;99.90
25628;DHT22;40915;50.826;4.356;2022-12-20T05:08:15;11.70;99.90
25628;DHT22;40915;50.826;4.356;2022-12-20T05:10:40;11.70;99.90
25628;DHT22;40915;50.826;4.356;2022-12-20T05:13:06;11.80;99.90
25628;DHT22;40915;50.826;4.356;2022-12-20T05:15:32;11.80;99.90
25628;DHT22;40915;50.826;4.356;2022-12-20T05:17:58;11.80;99.90
25628;DHT22;40915;50.826;4.356;2022-12-20T05:20:29;11.80;99.90
25628;DHT22;40915;50.826;4.356;2022-12-20T05:22:55;11.80;99.90
25628;DHT22;40915;50.826;4.356;2022-12-20T05:25:43;11.80;99.90
25628;DHT22;40915;50.826;4.356;2022-12-20T05:28:14;11.80;99.90
25628;DHT22;40915;50.826;4.356;2022-12-20T05:30:40;11.70;99.90
25628;DHT22;40915;50.826;4.356;2022-12-20T05:33:06;11.70;99.90
25628;DHT22;40915;50.826;4.356;2022-12-20T05:35:31;11.70;99.90
25628;DHT22;40915;50.826;4.356;2022-12-20T05:37:57;11.70;99.90
25628;DHT22;40915;50.826;4.356;2022-12-20T05:40:22;11.70;99.90
25628;DHT22;40915;50.826;4.356;2022-12-20T05:42:48;11.70;99.90
25628;DHT22;40915;50.826;4.356;2022-12-20T05:45:13;11.70;99.90
25628;DHT22;40915;50.826;4.356;2022-12-20T05:47:39;11.70;99.90
25628;DHT22;40915;50.826;4.356;2022-12-20T05:50:05;11.70;99.90
25628;DHT22;40915;50.826;4.356;2022-12-20T05:52:31;11.70;99.90
25628;DHT22;40915;50.826;4.356;2022-12-20T05:54:57;11.70;99.90
25628;DHT22;40915;50.826;4.356;2022-12-20T05:57:23;11.70;99.90
25628;DHT22;40915;50.826;4.356;2022-12-20T05:59:48;11.70;99.90
25628;DHT22;40915;50.826;4.356;2022-12-20T06:02:14;11.70;99.90
25628;DHT22;40915;50.826;4.356;2022-12-20T06:04:40;11.70;99.90
25628;DHT22;40915;50.826;4.356;2022-12-20T06:07:05;11.70;99.90
25628;DHT22;40915;50.826;4.356;2022-12-20T06:09:31;11.70;99.90
25628;DHT22;40915;50.826;4.356;2022-12-20T06:11:57;11.70;99.90
25628;DHT22;40915;50.826;4.356;2022-12-20T06:14:23;11.70;99.90
25628;DHT22;40915;50.826;4.356;2022-12-20T06:16:49;11.70;99.90
25628;DHT22;40915;50.826;4.356;2022-12-20T06:19:15;11.80;99.90
25628;DHT22;40915;50.826;4.356;2022-12-20T06:21:40;11.80;99.90
25628;DHT22;40915;50.826;4.356;2022-12-20T06:24:06;11.80;99.90
25628;DHT22;40915;50.826;4.356;2022-12-20T06:26:32;11.90;99.90
25628;DHT22;40915;50.826;4.356;2022-12-20T06:29:05;11.90;99.90
25628;DHT22;40915;50.826;4.356;2022-12-20T06:31:38;11.90;99.90
25628;DHT22;40915;50.826;4.356;2022-12-20T06:34:04;11.90;99.90
25628;DHT22;40915;50.826;4.356;2022-12-20T06:36:30;12.00;99.90
25628;DHT22;40915;50.826;4.356;2022-12-20T06:38:56;12.00;99.90
25628;DHT22;40915;50.826;4.356;2022-12-20T06:41:21;12.00;99.90
25628;DHT22;40915;50.826;4.356;2022-12-20T06:43:47;12.10;99.90
25628;DHT22;40915;50.826;4.356;2022-12-20T06:46:12;12.10;99.90
25628;DHT22;40915;50.826;4.356;2022-12-20T06:48:38;12.20;99.90
25628;DHT22;40915;50.826;4.356;2022-12-20T06:51:04;12.30;99.90
25628;DHT22;40915;50.826;4.356;2022-12-20T06:53:29;12.20;99.90
25628;DHT22;40915;50.826;4.356;2022-12-20T06:55:55;12.30;99.90
25628;DHT22;40915;50.826;4.356;2022-12-20T06:58:20;12.20;99.90
25628;DHT22;40915;50.826;4.356;2022-12-20T07:00:46;12.20;99.90
25628;DHT22;40915;50.826;4.356;2022-12-20T07:03:12;12.40;99.90
25628;DHT22;40915;50.826;4.356;2022-12-20T07:05:38;12.30;99.90
25628;DHT22;40915;50.826;4.356;2022-12-20T07:08:04;12.30;99.90
25628;DHT22;40915;50.826;4.356;2022-12-20T07:10:34;12.20;99.90
25628;DHT22;40915;50.826;4.356;2022-12-20T07:12:59;12.20;99.90
25628;DHT22;40915;50.826;4.356;2022-12-20T07:15:25;12.10;99.90
25628;DHT22;40915;50.826;4.356;2022-12-20T07:17:50;12.00;99.90
25628;DHT22;40915;50.826;4.356;2022-12-20T07:20:17;12.00;99.90
25628;DHT22;40915;50.826;4.356;2022-12-20T07:22:43;11.90;99.90
25628;DHT22;40915;50.826;4.356;2022-12-20T07:25:09;11.80;99.90
25628;DHT22;40915;50.826;4.356;2022-12-20T07:27:35;11.80;99.90
25628;DHT22;40915;50.826;4.356;2022-12-20T07:30:00;11.70;99.90
25628;DHT22;40915;50.826;4.356;2022-12-20T07:32:26;11.60;99.90
25628;DHT22;40915;50.826;4.356;2022-12-20T07:34:52;11.50;99.90
25628;DHT22;40915;50.826;4.356;2022-12-20T07:37:18;11.50;99.90
25628;DHT22;40915;50.826;4.356;2022-12-20T07:39:43;11.40;99.90
25628;DHT22;40915;50.826;4.356;2022-12-20T07:42:10;11.30;99.90
25628;DHT22;40915;50.826;4.356;2022-12-20T07:44:35;11.30;99.90
25628;DHT22;40915;50.826;4.356;2022-12-20T07:47:02;11.30;99.90
25628;DHT22;40915;50.826;4.356;2022-12-20T07:49:27;11.20;99.90
25628;DHT22;40915;50.826;4.356;2022-12-20T07:51:56;11.20;99.90
25628;DHT22;40915;50.826;4.356;2022-12-20T07:54:29;11.10;99.90
25628;DHT22;40915;50.826;4.356;2022-12-20T07:56:58;11.20;99.90
25628;DHT22;40915;50.826;4.356;2022-12-20T07:59:28;11.10;99.90
25628;DHT22;40915;50.826;4.356;2022-12-20T08:01:57;11.10;99.90
25628;DHT22;40915;50.826;4.356;2022-12-20T08:04:24;11.00;99.90
25628;DHT22;40915;50.826;4.356;2022-12-20T08:06:53;11.00;99.90
25628;DHT22;40915;50.826;4.356;2022-12-20T08:09:20;11.00;99.90
25628;DHT22;40915;50.826;4.356;2022-12-20T08:11:48;11.00;99.90
25628;DHT22;40915;50.826;4.356;2022-12-20T08:14:16;11.00;99.90
25628;DHT22;40915;50.826;4.356;2022-12-20T08:16:42;10.90;99.90
25628;DHT22;40915;50.826;4.356;2022-12-20T08:19:08;10.90;99.90
25628;DHT22;40915;50.826;4.356;2022-12-20T08:21:34;10.90;99.90
25628;DHT22;40915;50.826;4.356;2022-12-20T08:24:01;10.90;99.90
25628;DHT22;40915;50.826;4.356;2022-12-20T08:26:27;10.90;99.90
25628;DHT22;40915;50.826;4.356;2022-12-20T08:28:55;10.90;99.90
25628;DHT22;40915;50.826;4.356;2022-12-20T08:31:21;10.90;99.90
25628;DHT22;40915;50.826;4.356;2022-12-20T08:33:47;10.90;99.90
25628;DHT22;40915;50.826;4.356;2022-12-20T08:36:13;10.90;99.90
25628;DHT22;40915;50.826;4.356;2022-12-20T08:38:38;11.00;99.90
25628;DHT22;40915;50.826;4.356;2022-12-20T08:41:07;11.00;99.90
25628;DHT22;40915;50.826;4.356;2022-12-20T08:43:33;11.00;99.90
25628;DHT22;40915;50.826;4.356;2022-12-20T08:45:59;11.10;99.90
25628;DHT22;40915;50.826;4.356;2022-12-20T08:48:25;11.10;99.90
25628;DHT22;40915;50.826;4.356;2022-12-20T08:51:00;11.10;99.90
25628;DHT22;40915;50.826;4.356;2022-12-20T08:53:27;11.20;99.90
25628;DHT22;40915;50.826;4.356;2022-12-20T08:55:52;11.30;99.90
25628;DHT22;40915;50.826;4.356;2022-12-20T08:58:19;11.20;99.90
25628;DHT22;40915;50.826;4.356;2022-12-20T09:00:45;11.20;99.90
25628;DHT22;40915;50.826;4.356;2022-12-20T09:03:11;11.20;99.90
25628;DHT22;40915;50.826;4.356;2022-12-20T09:05:47;11.20;99.90
25628;DHT22;40915;50.826;4.356;2022-12-20T09:08:14;11.30;99.90
25628;DHT22;40915;50.826;4.356;2022-12-20T09:10:40;11.30;99.90
25628;DHT22;40915;50.826;4.356;2022-12-20T09:13:06;11.40;99.90
25628;DHT22;40915;50.826;4.356;2022-12-20T09:15:33;11.40;99.90
25628;DHT22;40915;50.826;4.356;2022-12-20T09:17:59;11.40;99.90
25628;DHT22;40915;50.826;4.356;2022-12-20T09:20:26;11.30;99.90
25628;DHT22;40915;50.826;4.356;2022-12-20T09:22:52;11.40;99.90
25628;DHT22;40915;50.826;4.356;2022-12-20T09:25:17;11.40;99.90
25628;DHT22;40915;50.826;4.356;2022-12-20T09:27:43;11.40;99.90
25628;DHT22;40915;50.826;4.356;2022-12-20T09:30:09;11.40;99.90
25628;DHT22;40915;50.826;4.356;2022-12-20T09:32:35;11.30;99.90
25628;DHT22;40915;50.826;4.356;2022-12-20T09:35:02;11.30;99.90
25628;DHT22;40915;50.826;4.356;2022-12-20T09:37:36;11.40;99.90
25628;DHT22;40915;50.826;4.356;2022-12-20T09:40:02;11.40;99.90
25628;DHT22;40915;50.826;4.356;2022-12-20T09:42:29;11.30;99.90
25628;DHT22;40915;50.826;4.356;2022-12-20T09:45:02;11.30;99.90
25628;DHT22;40915;50.826;4.356;2022-12-20T09:47:33;11.30;99.90
25628;DHT22;40915;50.826;4.356;2022-12-20T09:50:00;11.30;99.90
25628;DHT22;40915;50.826;4.356;2022-12-20T09:52:42;11.30;99.90
25628;DHT22;40915;50.826;4.356;2022-12-20T10:00:46;11.20;99.90
25628;DHT22;40915;50.826;4.356;2022-12-20T10:03:21;11.20;99.90
25628;DHT22;40915;50.826;4.356;2022-12-20T10:05:52;11.10;99.90
25628;DHT22;40915;50.826;4.356;2022-12-20T10:20:11;11.10;99.90
25628;DHT22;40915;50.826;4.356;2022-12-20T10:22:44;11.10;99.90
25628;DHT22;40915;50.826;4.356;2022-12-20T10:27:43;11.10;99.90
25628;DHT22;40915;50.826;4.356;2022-12-20T10:30:14;11.10;99.90
25628;DHT22;40915;50.826;4.356;2022-12-20T10:32:44;11.10;99.90
25628;DHT22;40915;50.826;4.356;2022-12-20T10:37:36;11.10;99.90
25628;DHT22;40915;50.826;4.356;2022-12-20T10:40:03;11.10;99.90
25628;DHT22;40915;50.826;4.356;2022-12-20T10:42:39;11.00;99.90
25628;DHT22;40915;50.826;4.356;2022-12-20T10:47:50;11.20;99.90
25628;DHT22;40915;50.826;4.356;2022-12-20T10:50:21;11.10;99.90
25628;DHT22;40915;50.826;4.356;2022-12-20T10:55:44;11.10;99.90
25628;DHT22;40915;50.826;4.356;2022-12-20T11:00:42;11.00;99.90
25628;DHT22;40915;50.826;4.356;2022-12-20T11:03:20;11.00;99.90
25628;DHT22;40915;50.826;4.356;2022-12-20T11:08:20;11.00;99.90
25628;DHT22;40915;50.826;4.356;2022-12-20T11:10:46;10.90;99.90
25628;DHT22;40915;50.826;4.356;2022-12-20T11:13:25;11.00;99.90
25628;DHT22;40915;50.826;4.356;2022-12-20T11:15:53;11.00;99.90
25628;DHT22;40915;50.826;4.356;2022-12-20T11:18:34;11.00;99.90
25628;DHT22;40915;50.826;4.356;2022-12-20T11:21:34;11.00;99.90
25628;DHT22;40915;50.826;4.356;2022-12-20T11:24:12;11.00;99.90
25628;DHT22;40915;50.826;4.356;2022-12-20T11:26:47;11.10;99.90
25628;DHT22;40915;50.826;4.356;2022-12-20T11:29:35;11.10;99.90
25628;DHT22;40915;50.826;4.356;2022-12-20T11:37:25;11.10;99.90
25628;DHT22;40915;50.826;4.356;2022-12-20T11:54:02;11.10;99.90
25628;DHT22;40915;50.826;4.356;2022-12-20T11:56:36;11.10;99.90
25628;DHT22;40915;50.826;4.356;2022-12-20T12:02:12;11.10;99.90
25628;DHT22;40915;50.826;4.356;2022-12-20T12:04:49;11.00;99.90
25628;DHT22;40915;50.826;4.356;2022-12-20T12:07:22;11.00;99.90
25628;DHT22;40915;50.826;4.356;2022-12-20T12:12:32;10.80;99.90
25628;DHT22;40915;50.826;4.356;2022-12-20T12:17:45;10.80;99.90
25628;DHT22;40915;50.826;4.356;2022-12-20T12:20:38;10.70;99.90
25628;DHT22;40915;50.826;4.356;2022-12-20T12:23:18;10.70;99.90
25628;DHT22;40915;50.826;4.356;2022-12-20T12:25:46;10.70;99.90
25628;DHT22;40915;50.826;4.356;2022-12-20T12:28:13;10.60;99.90
25628;DHT22;40915;50.826;4.356;2022-12-20T12:30:45;10.60;99.90
25628;DHT22;40915;50.826;4.356;2022-12-20T12:33:16;10.60;99.90
25628;DHT22;40915;50.826;4.356;2022-12-20T12:36:11;10.60;99.90
25628;DHT22;40915;50.826;4.356;2022-12-20T12:44:25;10.60;99.90
25628;DHT22;40915;50.826;4.356;2022-12-20T12:46:59;10.60;99.90
25628;DHT22;40915;50.826;4.356;2022-12-20T12:49:27;10.60;99.90
25628;DHT22;40915;50.826;4.356;2022-12-20T12:51:57;10.60;99.90
25628;DHT22;40915;50.826;4.356;2022-12-20T12:56:51;10.70;99.90
25628;DHT22;40915;50.826;4.356;2022-12-20T13:04:59;10.60;99.90
25628;DHT22;40915;50.826;4.356;2022-12-20T13:09:57;10.60;99.90
25628;DHT22;40915;50.826;4.356;2022-12-20T13:12:52;10.60;99.90
25628;DHT22;40915;50.826;4.356;2022-12-20T13:17:51;10.60;99.90
25628;DHT22;40915;50.826;4.356;2022-12-20T13:20:31;10.60;99.90
25628;DHT22;40915;50.826;4.356;2022-12-20T13:25:48;10.60;99.90
25628;DHT22;40915;50.826;4.356;2022-12-20T13:43:46;10.60;99.90
25628;DHT22;40915;50.826;4.356;2022-12-20T13:47:00;10.60;99.90
25628;DHT22;40915;50.826;4.356;2022-12-20T13:49:32;10.60;99.90
25628;DHT22;40915;50.826;4.356;2022-12-20T13:54:42;10.50;99.90
25628;DHT22;40915;50.826;4.356;2022-12-20T13:57:10;10.60;99.90
25628;DHT22;40915;50.826;4.356;2022-12-20T13:59:39;10.60;99.90
25628;DHT22;40915;50.826;4.356;2022-12-20T14:02:15;10.60;99.90
25628;DHT22;40915;50.826;4.356;2022-12-20T14:04:44;10.50;99.90
25628;DHT22;40915;50.826;4.356;2022-12-20T14:07:15;10.50;99.90
25628;DHT22;40915;50.826;4.356;2022-12-20T14:09:44;10.50;99.90
25628;DHT22;40915;50.826;4.356;2022-12-20T14:12:15;10.50;99.90
25628;DHT22;40915;50.826;4.356;2022-12-20T14:14:43;10.50;99.90
25628;DHT22;40915;50.826;4.356;2022-12-20T14:20:22;10.50;99.90
25628;DHT22;40915;50.826;4.356;2022-12-20T14:22:57;10.50;99.90
25628;DHT22;40915;50.826;4.356;2022-12-20T14:25:36;10.50;99.90
25628;DHT22;40915;50.826;4.356;2022-12-20T14:28:03;10.50;99.90
25628;DHT22;40915;50.826;4.356;2022-12-20T14:30:32;10.50;99.90
25628;DHT22;40915;50.826;4.356;2022-12-20T14:32:59;10.50;99.90
25628;DHT22;40915;50.826;4.356;2022-12-20T14:35:26;10.50;99.90
25628;DHT22;40915;50.826;4.356;2022-12-20T14:38:00;10.50;99.90
25628;DHT22;40915;50.826;4.356;2022-12-20T14:40:28;10.50;99.90
25628;DHT22;40915;50.826;4.356;2022-12-20T14:42:55;10.50;99.90
25628;DHT22;40915;50.826;4.356;2022-12-20T14:45:24;10.50;99.90
25628;DHT22;40915;50.826;4.356;2022-12-20T14:47:59;10.50;99.90
25628;DHT22;40915;50.826;4.356;2022-12-20T14:50:50;10.50;99.90
25628;DHT22;40915;50.826;4.356;2022-12-20T14:53:22;10.60;99.90
25628;DHT22;40915;50.826;4.356;2022-12-20T14:55:49;10.50;99.90
25628;DHT22;40915;50.826;4.356;2022-12-20T14:58:41;10.60;99.90
25628;DHT22;40915;50.826;4.356;2022-12-20T15:01:20;10.60;99.90
25628;DHT22;40915;50.826;4.356;2022-12-20T15:03:54;10.50;99.90
25628;DHT22;40915;50.826;4.356;2022-12-20T15:06:36;10.50;99.90
25628;DHT22;40915;50.826;4.356;2022-12-20T15:09:03;10.40;99.90
25628;DHT22;40915;50.826;4.356;2022-12-20T15:11:30;10.40;99.90
25628;DHT22;40915;50.826;4.356;2022-12-20T15:13:56;10.40;99.90
25628;DHT22;40915;50.826;4.356;2022-12-20T15:16:30;10.40;99.90
25628;DHT22;40915;50.826;4.356;2022-12-20T15:18:58;10.40;99.90
25628;DHT22;40915;50.826;4.356;2022-12-20T15:21:39;10.40;99.90
25628;DHT22;40915;50.826;4.356;2022-12-20T15:24:12;10.50;99.90
25628;DHT22;40915;50.826;4.356;2022-12-20T15:26:38;10.40;99.90
25628;DHT22;40915;50.826;4.356;2022-12-20T15:29:04;10.40;99.90
25628;DHT22;40915;50.826;4.356;2022-12-20T15:31:33;10.40;99.90
25628;DHT22;40915;50.826;4.356;2022-12-20T15:34:00;10.40;99.90
25628;DHT22;40915;50.826;4.356;2022-12-20T15:36:30;10.40;99.90
25628;DHT22;40915;50.826;4.356;2022-12-20T15:38:57;10.40;99.90
25628;DHT22;40915;50.826;4.356;2022-12-20T15:41:26;10.40;99.90
25628;DHT22;40915;50.826;4.356;2022-12-20T15:43:58;10.40;99.90
25628;DHT22;40915;50.826;4.356;2022-12-20T15:46:25;10.30;99.90
25628;DHT22;40915;50.826;4.356;2022-12-20T15:48:51;10.30;99.90
25628;DHT22;40915;50.826;4.356;2022-12-20T15:53:58;10.30;99.90
25628;DHT22;40915;50.826;4.356;2022-12-20T15:56:25;10.40;99.90
25628;DHT22;40915;50.826;4.356;2022-12-20T15:58:51;10.40;99.90
25628;DHT22;40915;50.826;4.356;2022-12-20T16:01:20;10.30;99.90
25628;DHT22;40915;50.826;4.356;2022-12-20T16:03:46;10.30;99.90
25628;DHT22;40915;50.826;4.356;2022-12-20T16:06:12;10.30;99.90
25628;DHT22;40915;50.826;4.356;2022-12-20T16:08:40;10.30;99.90
25628;DHT22;40915;50.826;4.356;2022-12-20T16:11:13;10.30;99.90
25628;DHT22;40915;50.826;4.356;2022-12-20T16:13:42;10.30;99.90
25628;DHT22;40915;50.826;4.356;2022-12-20T16:16:16;10.30;99.90
25628;DHT22;40915;50.826;4.356;2022-12-20T16:18:42;10.30;99.90
25628;DHT22;40915;50.826;4.356;2022-12-20T16:21:17;10.30;99.90
25628;DHT22;40915;50.826;4.356;2022-12-20T16:23:44;10.30;99.90
25628;DHT22;40915;50.826;4.356;2022-12-20T16:26:14;10.30;99.90
25628;DHT22;40915;50.826;4.356;2022-12-20T16:28:40;10.30;99.90
25628;DHT22;40915;50.826;4.356;2022-12-20T16:33:54;10.30;99.90
25628;DHT22;40915;50.826;4.356;2022-12-20T16:36:20;10.30;99.90
25628;DHT22;40915;50.826;4.356;2022-12-20T16:38:47;10.20;99.90
25628;DHT22;40915;50.826;4.356;2022-12-20T16:41:17;10.20;99.90
25628;DHT22;40915;50.826;4.356;2022-12-20T16:43:44;10.20;99.90
25628;DHT22;40915;50.826;4.356;2022-12-20T16:46:11;10.20;99.90
25628;DHT22;40915;50.826;4.356;2022-12-20T16:48:38;10.20;99.90
25628;DHT22;40915;50.826;4.356;2022-12-20T16:51:33;10.20;99.90
25628;DHT22;40915;50.826;4.356;2022-12-20T16:56:26;10.30;99.90
25628;DHT22;40915;50.826;4.356;2022-12-20T16:58:52;10.20;99.90
25628;DHT22;40915;50.826;4.356;2022-12-20T17:01:20;10.20;99.90
25628;DHT22;40915;50.826;4.356;2022-12-20T17:03:50;10.20;99.90
25628;DHT22;40915;50.826;4.356;2022-12-20T17:06:16;10.20;99.90
25628;DHT22;40915;50.826;4.356;2022-12-20T17:08:43;10.20;99.90
25628;DHT22;40915;50.826;4.356;2022-12-20T17:11:27;10.20;99.90
25628;DHT22;40915;50.826;4.356;2022-12-20T17:13:56;10.20;99.90
25628;DHT22;40915;50.826;4.356;2022-12-20T17:16:22;10.20;99.90
25628;DHT22;40915;50.826;4.356;2022-12-20T17:18:51;10.20;99.90
25628;DHT22;40915;50.826;4.356;2022-12-20T17:21:34;10.20;99.90
25628;DHT22;40915;50.826;4.356;2022-12-20T17:24:01;10.20;99.90
25628;DHT22;40915;50.826;4.356;2022-12-20T17:26:28;10.20;99.90
25628;DHT22;40915;50.826;4.356;2022-12-20T17:28:56;10.20;99.90
25628;DHT22;40915;50.826;4.356;2022-12-20T17:31:34;10.20;99.90
25628;DHT22;40915;50.826;4.356;2022-12-20T17:36:42;10.20;99.90
25628;DHT22;40915;50.826;4.356;2022-12-20T17:39:08;10.20;99.90
25628;DHT22;40915;50.826;4.356;2022-12-20T17:41:33;10.30;99.90
25628;DHT22;40915;50.826;4.356;2022-12-20T17:44:00;10.30;99.90
25628;DHT22;40915;50.826;4.356;2022-12-20T17:46:28;10.30;99.90
25628;DHT22;40915;50.826;4.356;2022-12-20T17:48:53;10.20;99.90